Time;durP1;ratioP1;P1;durP2;ratioP2;P2;SDS_P1;SDS_P2;PMS_P1;PMS_P2;Temp;Humidity;BMP_temperature;BMP_pressure;BME280_temperature;BME280_humidity;BME280_pressure;Samples;Min_cycle;Max_cycle;Signal;HPM_P1;HPM_P2
2022/10/01 00:01:28;;;;;;;31.45;17.50;;;;;;;11.48;100.00;98558.33;2075998;84;21036;-88
2022/10/01 00:04:28;;;;;;;30.45;16.50;;;;;;;11.56;100.00;98566.07;2093695;84;21032;-89
2022/10/01 00:07:31;;;;;;;30.70;16.55;;;;;;;11.58;100.00;98567.19;2075235;83;21563;-88
2022/10/01 00:10:32;;;;;;;33.63;17.87;;;;;;;11.61;100.00;98564.17;2099996;83;21068;-88
2022/10/01 00:13:32;;;;;;;33.45;16.75;;;;;;;11.58;100.00;98568.00;2099897;83;21049;-88
2022/10/01 00:16:33;;;;;;;33.48;18.10;;;;;;;11.52;100.00;98574.02;2097437;84;21044;-89
2022/10/01 00:19:34;;;;;;;33.08;17.57;;;;;;;11.49;100.00;98582.23;2101874;83;21108;-88
2022/10/01 00:22:35;;;;;;;29.67;15.80;;;;;;;11.47;100.00;98577.69;2100994;83;21008;-88
2022/10/01 00:25:35;;;;;;;31.15;16.45;;;;;;;11.38;100.00;98563.90;2165965;81;21128;-87
2022/10/01 00:28:36;;;;;;;31.25;15.60;;;;;;;11.37;100.00;98561.47;2162473;82;21095;-87
2022/10/01 00:31:37;;;;;;;32.93;17.00;;;;;;;11.39;100.00;98562.09;2111433;84;21029;-88
2022/10/01 00:34:38;;;;;;;33.90;17.75;;;;;;;11.45;100.00;98562.66;2088129;84;21039;-87
2022/10/01 00:37:38;;;;;;;34.70;17.92;;;;;;;11.44;100.00;98558.41;2071522;84;20997;-88
2022/10/01 00:40:39;;;;;;;30.90;15.80;;;;;;;11.51;100.00;98555.33;2065002;84;21060;-87
2022/10/01 00:43:42;;;;;;;33.83;16.87;;;;;;;11.49;100.00;98559.14;2071567;84;21524;-88
2022/10/01 00:46:43;;;;;;;37.65;16.35;;;;;;;11.49;100.00;98559.14;2065289;84;21024;-87
2022/10/01 00:49:46;;;;;;;33.73;18.02;;;;;;;11.52;100.00;98568.77;2064619;84;21076;-89
2022/10/01 00:52:46;;;;;;;29.27;16.37;;;;;;;11.53;100.00;98562.52;2099030;84;21544;-84
2022/10/01 00:55:47;;;;;;;32.25;17.48;;;;;;;11.55;100.00;98563.64;2082969;84;21153;-83
2022/10/01 00:58:53;;;;;;;29.75;15.80;;;;;;;11.59;100.00;98570.92;2070869;84;21538;-87
2022/10/01 01:01:50;;;;;;;31.62;16.55;;;;;;;11.61;100.00;98565.02;2063961;84;21080;-88
2022/10/01 01:04:51;;;;;;;31.35;16.00;;;;;;;11.65;100.00;98565.44;2088816;84;21595;-87
2022/10/01 01:07:52;;;;;;;29.23;16.55;;;;;;;11.67;100.00;98565.55;2143340;82;21556;-83
2022/10/01 01:10:53;;;;;;;32.35;17.23;;;;;;;11.66;100.00;98556.06;2108773;83;21034;-83
2022/10/01 01:13:53;;;;;;;31.85;16.48;;;;;;;11.65;100.00;98558.38;2103445;84;21599;-85
2022/10/01 01:16:54;;;;;;;29.27;15.48;;;;;;;11.62;100.00;98549.59;2167585;82;20974;-84
2022/10/01 01:19:55;;;;;;;33.83;16.70;;;;;;;11.60;100.00;98545.02;2153209;82;21036;-84
2022/10/01 01:22:56;;;;;;;31.48;16.23;;;;;;;11.66;100.00;98540.83;2088492;85;21057;-83
2022/10/01 01:25:57;;;;;;;29.15;16.90;;;;;;;11.71;100.00;98541.08;2073206;84;21064;-87
2022/10/01 01:28:58;;;;;;;31.75;19.32;;;;;;;11.72;100.00;98539.27;2070664;84;21033;-89
2022/10/01 01:32:01;;;;;;;33.78;17.25;;;;;;;11.75;100.00;98542.81;2065831;85;21059;-87
2022/10/01 01:35:01;;;;;;;34.10;18.48;;;;;;;11.73;100.00;98550.88;2098003;84;21116;-87
2022/10/01 01:38:02;;;;;;;36.98;17.92;;;;;;;11.71;100.00;98554.70;2097300;83;20996;-87
2022/10/01 01:41:03;;;;;;;36.23;18.10;;;;;;;11.73;100.00;98550.88;2101118;83;21131;-84
2022/10/01 01:44:04;;;;;;;41.18;18.87;;;;;;;11.77;100.00;98537.67;2090149;85;21076;-84
2022/10/01 01:47:05;;;;;;;38.85;19.67;;;;;;;11.78;100.00;98543.23;2158695;82;21108;-88
2022/10/01 01:50:07;;;;;;;40.90;20.48;;;;;;;11.81;100.00;98546.02;2090370;85;21158;-88
2022/10/01 01:53:07;;;;;;;39.65;19.45;;;;;;;11.83;100.00;98536.95;2154011;81;21400;-88
2022/10/01 01:56:08;;;;;;;36.17;18.95;;;;;;;11.88;100.00;98538.98;2072602;85;21049;-88
2022/10/01 01:59:09;;;;;;;40.50;19.55;;;;;;;11.87;100.00;98545.23;2095174;84;21138;-88
2022/10/01 02:02:10;;;;;;;42.78;20.02;;;;;;;11.90;100.00;98546.19;2079789;84;21033;-88
2022/10/01 02:05:10;;;;;;;34.15;18.75;;;;;;;11.90;100.00;98537.81;2164992;82;21497;-88
2022/10/01 02:08:11;;;;;;;35.45;19.07;;;;;;;11.85;100.00;98541.50;2149733;82;21045;-83
2022/10/01 02:11:12;;;;;;;33.63;16.97;;;;;;;11.81;100.00;98548.14;2166377;82;21057;-87
2022/10/01 02:14:12;;;;;;;34.08;19.10;;;;;;;11.76;100.00;98553.11;2165061;82;22080;-88
2022/10/01 02:17:15;;;;;;;44.73;21.45;;;;;;;11.74;100.00;98543.31;2165277;82;21017;-87
2022/10/01 02:20:17;;;;;;;38.85;21.55;;;;;;;11.66;100.00;98551.32;2165039;82;21183;-88
2022/10/01 02:23:17;;;;;;;38.38;20.50;;;;;;;11.65;100.00;98549.20;2158350;82;21052;-88
2022/10/01 02:26:18;;;;;;;33.75;17.85;;;;;;;11.67;100.00;98552.44;2150499;82;21519;-89
2022/10/01 02:29:19;;;;;;;37.58;18.42;;;;;;;11.69;100.00;98558.80;2155638;82;21150;-88
2022/10/01 02:32:19;;;;;;;36.23;19.05;;;;;;;11.68;100.00;98555.87;2151797;81;21079;-89
2022/10/01 02:35:20;;;;;;;34.03;18.55;;;;;;;11.70;100.00;98555.17;2139228;82;21554;-89
2022/10/01 02:38:21;;;;;;;32.28;18.70;;;;;;;11.65;100.00;98549.70;2161537;82;21060;-86
2022/10/01 02:41:22;;;;;;;35.90;19.57;;;;;;;11.67;100.00;98558.99;2166252;82;21029;-88
2022/10/01 02:44:22;;;;;;;35.40;17.67;;;;;;;11.68;100.00;98559.80;2155869;82;20977;-89
2022/10/01 02:47:23;;;;;;;34.60;17.35;;;;;;;11.67;100.00;98555.06;2149726;82;21049;-86
2022/10/01 02:50:24;;;;;;;40.80;18.05;;;;;;;11.64;100.00;98555.95;2147823;82;21022;-88
2022/10/01 02:53:24;;;;;;;36.63;18.45;;;;;;;11.61;100.00;98556.31;2162683;82;21455;-88
2022/10/01 02:59:44;;;;;;;30.52;16.77;;;;;;;11.57;100.00;98559.83;2144003;82;20989;-88
2022/10/01 03:02:46;;;;;;;34.23;17.92;;;;;;;11.61;100.00;98560.24;2138970;82;21095;-88
2022/10/01 03:05:46;;;;;;;35.65;19.23;;;;;;;11.64;100.00;98558.58;2162377;82;21545;-89
2022/10/01 03:08:47;;;;;;;38.98;18.45;;;;;;;11.69;100.00;98566.16;2161810;82;21084;-87
2022/10/01 03:11:48;;;;;;;29.37;16.70;;;;;;;11.68;100.00;98565.86;2157234;82;21495;-88
2022/10/01 03:14:49;;;;;;;38.95;17.98;;;;;;;11.64;100.00;98563.82;2138971;82;21355;-87
2022/10/01 03:17:49;;;;;;;33.83;16.62;;;;;;;11.62;100.00;98561.39;2147369;82;21016;-86
2022/10/01 03:20:50;;;;;;;35.78;17.15;;;;;;;11.63;100.00;98566.13;2154094;82;21553;-87
2022/10/01 03:23:51;;;;;;;37.00;18.40;;;;;;;11.66;100.00;98560.00;2141292;82;21075;-86
2022/10/01 03:26:51;;;;;;;32.98;16.20;;;;;;;11.64;100.00;98565.94;2138866;82;21079;-88
2022/10/01 03:29:52;;;;;;;36.77;18.65;;;;;;;11.66;100.00;98565.74;2149821;82;21523;-88
2022/10/01 03:32:53;;;;;;;34.00;16.70;;;;;;;11.63;100.00;98566.94;2132726;81;20985;-88
2022/10/01 03:35:54;;;;;;;36.60;19.60;;;;;;;11.67;100.00;98568.17;2137119;82;21115;-87
2022/10/01 03:38:54;;;;;;;38.75;19.65;;;;;;;11.68;100.00;98570.30;2148338;81;21005;-88
2022/10/01 03:41:55;;;;;;;36.80;17.17;;;;;;;11.70;100.00;98572.22;2142770;82;21043;-86
2022/10/01 03:44:56;;;;;;;35.15;18.60;;;;;;;11.72;100.00;98568.13;2146995;82;21029;-87
2022/10/01 03:47:57;;;;;;;38.90;18.98;;;;;;;11.74;100.00;98564.30;2108866;83;21093;-88
2022/10/01 03:50:57;;;;;;;41.95;18.92;;;;;;;11.71;100.00;98566.50;2085693;84;21053;-87
2022/10/01 03:53:58;;;;;;;37.73;18.85;;;;;;;11.67;100.00;98561.61;2159367;82;21515;-87
2022/10/01 03:56:59;;;;;;;38.48;20.32;;;;;;;11.69;100.00;98566.66;2102778;83;21026;-87
2022/10/01 03:59:59;;;;;;;40.55;19.90;;;;;;;11.68;100.00;98559.80;2102824;84;21091;-87
2022/10/01 04:03:00;;;;;;;37.05;18.73;;;;;;;11.63;100.00;98551.70;2087584;85;21017;-88
2022/10/01 04:06:01;;;;;;;40.70;19.25;;;;;;;11.62;100.00;98551.41;2166780;82;21088;-88
2022/10/01 04:09:01;;;;;;;37.90;19.25;;;;;;;11.64;100.00;98550.70;2143623;82;21027;-88
2022/10/01 04:12:03;;;;;;;36.33;18.82;;;;;;;11.61;100.00;98553.69;2065318;85;21552;-83
2022/10/01 04:15:03;;;;;;;37.85;19.15;;;;;;;11.64;100.00;98555.95;2067387;84;21114;-86
2022/10/01 04:18:05;;;;;;;40.15;19.85;;;;;;;11.63;100.00;98553.83;2098077;84;21010;-84
2022/10/01 04:21:05;;;;;;;37.15;19.90;;;;;;;11.63;100.00;98543.34;2095675;85;21064;-87
2022/10/01 04:24:06;;;;;;;38.70;20.32;;;;;;;11.63;100.00;98545.96;2099349;83;20981;-87
2022/10/01 04:27:07;;;;;;;40.15;19.42;;;;;;;11.65;100.00;98545.27;2101000;83;21094;-87
2022/10/01 04:30:07;;;;;;;37.98;18.95;;;;;;;11.66;100.00;98544.27;2099826;83;21119;-86
2022/10/01 04:33:08;;;;;;;41.85;21.17;;;;;;;11.63;100.00;98542.03;2099662;85;21473;-84
2022/10/01 04:36:09;;;;;;;37.42;19.95;;;;;;;11.60;100.00;98545.02;2055971;84;21099;-87
2022/10/01 04:39:09;;;;;;;35.03;19.12;;;;;;;11.56;100.00;98546.41;2097096;84;21048;-87
2022/10/01 04:42:12;;;;;;;35.23;18.37;;;;;;;11.56;100.00;98535.11;2087443;85;21009;-87
2022/10/01 04:45:12;;;;;;;32.83;17.77;;;;;;;11.57;100.00;98540.16;2157616;82;21025;-87
2022/10/01 04:48:13;;;;;;;38.38;19.80;;;;;;;11.54;100.00;98533.98;2158387;82;21089;-85
2022/10/01 04:51:14;;;;;;;36.25;19.52;;;;;;;11.55;100.00;98535.61;2061835;85;21549;-87
2022/10/01 04:54:15;;;;;;;37.17;19.70;;;;;;;11.54;100.00;98537.92;2083008;85;21591;-86
2022/10/01 04:57:16;;;;;;;36.38;18.60;;;;;;;11.50;100.00;98543.22;2101618;84;21029;-87
2022/10/01 05:00:17;;;;;;;40.65;19.87;;;;;;;11.51;100.00;98546.15;2151868;81;21362;-86
2022/10/01 05:03:17;;;;;;;32.63;18.48;;;;;;;11.48;100.00;98541.29;2098913;84;21040;-86
2022/10/01 05:06:18;;;;;;;37.98;20.57;;;;;;;11.51;100.00;98542.22;2085904;84;21057;-88
2022/10/01 05:09:19;;;;;;;34.65;18.98;;;;;;;11.54;100.00;98552.84;2092847;83;21044;-87
2022/10/01 05:12:20;;;;;;;34.38;18.65;;;;;;;11.60;100.00;98554.69;2095482;83;21584;-87
2022/10/01 05:15:20;;;;;;;35.78;19.23;;;;;;;11.60;100.00;98556.81;2096873;83;21614;-87
2022/10/01 05:18:21;;;;;;;35.17;19.10;;;;;;;11.65;100.00;98552.33;2096687;83;21087;-88
2022/10/01 05:21:22;;;;;;;31.52;19.10;;;;;;;11.65;100.00;98553.13;2100963;84;21001;-87
2022/10/01 05:24:22;;;;;;;33.50;18.60;;;;;;;11.74;100.00;98545.94;2156806;82;21010;-86
2022/10/01 05:27:23;;;;;;;27.67;16.77;;;;;;;11.85;100.00;98547.25;2093493;85;21092;-87
2022/10/01 05:30:24;;;;;;;28.38;18.35;;;;;;;11.85;100.00;98546.75;2162629;82;21049;-85
2022/10/01 05:33:25;;;;;;;29.10;17.20;;;;;;;11.74;100.00;98554.31;2143944;82;21032;-86
2022/10/01 05:36:26;;;;;;;26.55;17.15;;;;;;;11.69;100.00;98545.18;2144683;82;21104;-83
2022/10/01 05:39:27;;;;;;;27.20;16.80;;;;;;;11.72;100.00;98544.02;2147610;82;20977;-85
2022/10/01 05:42:27;;;;;;;29.15;16.42;;;;;;;11.73;100.00;98533.83;2112193;84;21062;-83
2022/10/01 05:45:28;;;;;;;24.87;15.35;;;;;;;11.75;100.00;98546.75;2100425;84;21060;-84
2022/10/01 05:48:33;;;;;;;25.10;14.43;;;;;;;11.75;100.00;98537.06;2068207;84;21059;-83
2022/10/01 05:51:32;;;;;;;23.42;14.90;;;;;;;11.84;100.00;98545.13;2081623;83;21125;-82
2022/10/01 05:54:33;;;;;;;23.18;14.65;;;;;;;11.90;100.00;98542.25;2166468;82;21006;-82
2022/10/01 05:57:34;;;;;;;22.93;13.93;;;;;;;12.01;100.00;98543.02;2153767;82;21060;-80
2022/10/01 06:00:35;;;;;;;23.47;15.25;;;;;;;12.10;100.00;98533.99;2155272;81;21095;-81
2022/10/01 06:03:37;;;;;;;27.80;14.33;;;;;;;12.21;100.00;98543.94;2142947;82;21020;-78
2022/10/01 06:06:38;;;;;;;30.80;18.45;;;;;;;12.30;100.00;98539.84;2093257;83;21063;-75
2022/10/01 06:09:39;;;;;;;35.65;24.50;;;;;;;12.33;100.00;98542.88;2099977;84;21811;-79
2022/10/01 06:12:39;;;;;;;39.88;28.87;;;;;;;12.40;100.00;98531.91;2157991;82;21579;-81
2022/10/01 06:15:40;;;;;;;34.23;28.42;;;;;;;12.46;100.00;98536.39;2098774;83;21021;-80
2022/10/01 06:18:41;;;;;;;27.02;21.95;;;;;;;12.40;100.00;98528.48;2075560;83;21105;-82
2022/10/01 06:21:41;;;;;;;33.18;23.10;;;;;;;12.44;100.00;98530.53;2060788;84;21103;-84
2022/10/01 06:24:42;;;;;;;32.63;24.65;;;;;;;12.51;100.00;98523.47;2161197;81;21001;-84
2022/10/01 06:27:43;;;;;;;25.10;15.35;;;;;;;12.61;100.00;98530.17;2070816;84;21020;-79
2022/10/01 06:30:44;;;;;;;20.00;14.73;;;;;;;12.65;100.00;98524.84;2089569;85;21015;-85
2022/10/01 06:33:45;;;;;;;21.68;13.90;;;;;;;12.77;100.00;98524.57;2075411;84;21088;-89
2022/10/01 06:36:48;;;;;;;18.07;12.40;;;;;;;12.92;100.00;98523.11;2060784;85;21512;-86
2022/10/01 06:39:48;;;;;;;21.85;14.70;;;;;;;13.06;100.00;98529.48;2165190;82;21098;-87
2022/10/01 06:42:49;;;;;;;20.45;14.95;;;;;;;13.20;100.00;98530.86;2140691;82;21056;-85
2022/10/01 06:45:49;;;;;;;24.00;15.83;;;;;;;13.27;100.00;98529.87;2104745;83;21085;-86
2022/10/01 06:48:50;;;;;;;23.00;14.38;;;;;;;13.29;100.00;98531.78;2077628;84;21092;-85
2022/10/01 06:55:10;;;;;;;23.45;16.23;;;;;;;13.31;100.00;98525.00;2063168;84;21145;-83
2022/10/01 06:58:10;;;;;;;22.70;14.25;;;;;;;13.48;100.00;98526.73;2077523;84;20962;-84
2022/10/01 07:01:11;;;;;;;22.70;15.30;;;;;;;13.50;100.00;98528.66;2079382;85;21057;-85
2022/10/01 07:04:12;;;;;;;23.62;16.17;;;;;;;13.52;100.00;98529.25;2098424;85;21167;-88
2022/10/01 07:07:12;;;;;;;22.98;15.65;;;;;;;13.56;100.00;98524.71;2080209;85;21037;-83
2022/10/01 07:10:13;;;;;;;23.42;15.78;;;;;;;13.56;100.00;98527.85;2067223;85;21013;-85
2022/10/01 07:13:15;;;;;;;25.55;17.92;;;;;;;13.40;100.00;98526.94;2055843;85;21117;-84
2022/10/01 07:16:16;;;;;;;21.35;15.90;;;;;;;13.39;100.00;98528.76;2080987;84;21174;-83
2022/10/01 07:19:16;;;;;;;22.75;15.15;;;;;;;13.51;100.00;98528.95;2084309;85;21049;-85
2022/10/01 07:22:18;;;;;;;26.07;17.12;;;;;;;13.57;100.00;98522.38;2074900;85;21079;-86
2022/10/01 07:25:19;;;;;;;18.65;14.10;;;;;;;13.72;100.00;98524.01;2094316;84;21056;-84
2022/10/01 07:28:19;;;;;;;21.55;16.62;;;;;;;13.78;100.00;98520.53;2095849;83;21519;-85
2022/10/01 07:31:20;;;;;;;20.82;15.10;;;;;;;13.81;100.00;98525.41;2100646;83;20993;-84
2022/10/01 07:34:24;;;;;;;23.60;14.33;;;;;;;13.98;100.00;98516.55;2140026;82;21040;-85
2022/10/01 07:37:23;;;;;;;24.82;15.95;;;;;;;14.17;100.00;98523.59;2082996;85;21144;-83
2022/10/01 07:40:26;;;;;;;18.35;14.65;;;;;;;14.24;100.00;98527.02;2071897;85;21024;-84
2022/10/01 07:43:26;;;;;;;21.12;15.50;;;;;;;14.30;100.00;98534.61;2094184;83;21096;-84
2022/10/01 07:46:27;;;;;;;22.85;16.62;;;;;;;14.31;100.00;98527.01;2135652;82;21523;-86
2022/10/01 07:49:28;;;;;;;24.98;16.85;;;;;;;14.38;100.00;98524.66;2056869;85;21033;-83
2022/10/01 07:52:29;;;;;;;24.75;16.65;;;;;;;14.40;100.00;98517.86;2101263;84;21084;-82
2022/10/01 07:55:31;;;;;;;23.77;16.40;;;;;;;14.45;100.00;98520.72;2068093;84;21616;-85
2022/10/01 07:58:33;;;;;;;21.52;15.55;;;;;;;14.46;100.00;98527.59;2153153;82;21088;-86
2022/10/01 08:01:34;;;;;;;21.20;15.83;;;;;;;14.50;100.00;98520.88;2116566;82;21128;-88
2022/10/01 08:07:53;;;;;;;23.05;16.02;;;;;;;14.46;100.00;98524.97;2068443;85;21575;-81
2022/10/01 08:10:54;;;;;;;24.70;15.83;;;;;;;14.48;100.00;98522.41;2063525;84;21012;-84
2022/10/01 08:13:56;;;;;;;21.55;16.45;;;;;;;14.54;100.00;98524.73;2165151;81;21052;-83
2022/10/01 08:16:56;;;;;;;23.25;16.42;;;;;;;14.62;100.00;98521.02;2095158;85;21041;-84
2022/10/01 08:19:57;;;;;;;22.40;15.18;;;;;;;14.73;100.00;98517.24;2095291;83;21586;-83
2022/10/01 08:22:58;;;;;;;20.77;15.78;;;;;;;14.91;100.00;98523.13;2161164;81;21017;-83
2022/10/01 08:25:59;;;;;;;24.00;16.00;;;;;;;15.00;100.00;98517.90;2162628;82;20993;-85
2022/10/01 08:28:59;;;;;;;19.32;15.28;;;;;;;15.09;100.00;98514.50;2144808;81;21044;-83
2022/10/01 08:32:00;;;;;;;22.98;14.38;;;;;;;15.07;100.00;98510.73;2165782;81;21029;-85
2022/10/01 08:35:01;;;;;;;22.02;15.38;;;;;;;14.98;100.00;98505.42;2157764;82;21065;-85
2022/10/01 08:38:01;;;;;;;25.32;16.17;;;;;;;14.93;100.00;98500.50;2152670;82;21143;-86
2022/10/01 08:41:03;;;;;;;21.27;14.60;;;;;;;15.01;100.00;98497.11;2144265;82;21142;-85
2022/10/01 08:44:04;;;;;;;21.62;13.62;;;;;;;14.99;100.00;98493.04;2162895;82;21521;-87
2022/10/01 08:47:05;;;;;;;20.92;13.90;;;;;;;14.82;100.00;98490.13;2154344;82;21093;-85
2022/10/01 08:50:06;;;;;;;19.35;13.50;;;;;;;14.63;100.00;98490.54;2143254;82;21044;-86
2022/10/01 08:53:07;;;;;;;17.75;14.40;;;;;;;14.57;100.00;98487.42;2162649;82;21144;-88
2022/10/01 08:56:08;;;;;;;19.60;14.87;;;;;;;14.66;100.00;98487.98;2144805;82;21517;-87
2022/10/01 08:59:09;;;;;;;20.50;15.05;;;;;;;14.82;100.00;98482.22;2148931;82;21092;-89
2022/10/01 09:02:10;;;;;;;17.90;13.70;;;;;;;14.95;100.00;98477.36;2166678;82;21048;-89
2022/10/01 09:05:10;;;;;;;22.98;14.83;;;;;;;15.04;100.00;98474.26;2162007;82;21572;-86
2022/10/01 09:08:14;;;;;;;29.87;15.58;;;;;;;15.18;100.00;98474.98;2146425;82;21071;-82
2022/10/01 09:11:14;;;;;;;20.95;15.15;;;;;;;15.34;100.00;98464.38;2151712;82;21105;-84
2022/10/01 09:14:15;;;;;;;22.37;15.05;;;;;;;15.44;100.00;98468.66;2158944;82;21092;-85
2022/10/01 09:17:16;;;;;;;26.55;17.12;;;;;;;15.42;100.00;98471.23;2153193;82;21128;-82
2022/10/01 09:20:17;;;;;;;18.75;13.93;;;;;;;15.46;100.00;98473.23;2164996;82;21525;-87
2022/10/01 09:23:17;;;;;;;19.12;15.25;;;;;;;15.43;100.00;98465.73;2156360;82;21091;-83
2022/10/01 09:26:18;;;;;;;20.88;13.08;;;;;;;15.43;100.00;98457.00;2134262;82;21107;-87
2022/10/01 09:29:19;;;;;;;23.25;16.12;;;;;;;15.48;100.00;98455.34;2134069;82;21037;-85
2022/10/01 09:32:20;;;;;;;22.20;14.55;;;;;;;15.47;100.00;98455.05;2151132;82;21082;-85
2022/10/01 09:35:20;;;;;;;17.30;13.45;;;;;;;15.48;100.00;98452.70;2140727;82;20989;-86
2022/10/01 09:38:21;;;;;;;20.72;14.68;;;;;;;15.55;100.00;98445.55;2151290;82;21099;-85
2022/10/01 09:41:22;;;;;;;21.90;14.85;;;;;;;15.64;100.00;98435.03;2139031;82;21028;-84
2022/10/01 09:44:23;;;;;;;22.22;15.68;;;;;;;15.68;100.00;98439.34;2162999;82;21576;-86
2022/10/01 09:47:28;;;;;;;22.05;16.55;;;;;;;15.65;100.00;98438.47;2165715;82;21024;-86
2022/10/01 09:50:26;;;;;;;20.92;14.63;;;;;;;15.61;100.00;98439.92;2153537;82;21022;-89
2022/10/01 09:53:27;;;;;;;22.25;16.90;;;;;;;15.55;100.00;98434.98;2164749;82;21342;-83
2022/10/01 09:56:27;;;;;;;22.90;16.02;;;;;;;15.61;100.00;98432.00;2158013;81;21068;-84
2022/10/01 09:59:28;;;;;;;24.45;16.35;;;;;;;15.74;100.00;98433.20;2143098;83;21251;-90
2022/10/01 10:02:29;;;;;;;20.68;15.88;;;;;;;15.76;100.00;98438.25;2141004;83;21639;-88
2022/10/01 10:05:30;;;;;;;26.40;16.50;;;;;;;15.77;100.00;98435.91;2141477;82;21067;-86
2022/10/01 10:08:30;;;;;;;27.02;17.37;;;;;;;15.70;100.00;98439.13;2162429;82;21014;-85
2022/10/01 10:11:31;;;;;;;26.25;17.27;;;;;;;15.71;100.00;98429.66;2151814;81;21594;-88
2022/10/01 10:14:32;;;;;;;22.37;15.60;;;;;;;15.82;100.00;98428.16;2150933;81;20982;-85
2022/10/01 10:17:34;;;;;;;24.43;16.80;;;;;;;15.98;100.00;98420.13;2151067;82;21109;-86
2022/10/01 10:20:36;;;;;;;24.25;17.32;;;;;;;16.06;100.00;98415.36;2147861;81;21005;-85
2022/10/01 10:23:37;;;;;;;24.60;19.10;;;;;;;16.25;100.00;98415.33;2097636;83;21065;-87
2022/10/01 10:26:38;;;;;;;22.77;17.25;;;;;;;16.24;100.00;98415.84;2112365;83;21057;-85
2022/10/01 10:29:38;;;;;;;23.70;17.23;;;;;;;16.12;100.00;98405.75;2102675;83;21044;-85
2022/10/01 10:32:40;;;;;;;21.40;16.90;;;;;;;16.11;100.00;98412.06;2110509;82;21111;-86
2022/10/01 10:35:41;;;;;;;23.00;17.55;;;;;;;16.10;100.00;98403.34;2082968;84;21025;-82
2022/10/01 10:38:44;;;;;;;23.52;17.65;;;;;;;16.09;100.00;98396.94;2132557;83;21060;-83
2022/10/01 10:41:44;;;;;;;29.35;19.92;;;;;;;16.15;100.00;98388.94;2073266;84;21035;-85
2022/10/01 10:44:45;;;;;;;29.35;19.07;;;;;;;16.32;100.00;98379.88;2072732;85;21081;-83
2022/10/01 10:47:45;;;;;;;28.65;19.65;;;;;;;16.52;100.00;98381.44;2046459;85;21731;-82
2022/10/01 10:50:46;;;;;;;30.00;20.02;;;;;;;16.56;100.00;98366.75;2070929;85;21022;-82
2022/10/01 10:53:48;;;;;;;28.50;19.10;;;;;;;16.55;100.00;98367.76;2117942;83;22099;-85
2022/10/01 10:56:49;;;;;;;27.70;19.95;;;;;;;16.50;100.00;98361.84;2096925;83;21477;-86
2022/10/01 10:59:49;;;;;;;30.60;20.50;;;;;;;16.41;100.00;98360.04;2076517;83;21047;-84
2022/10/01 11:02:50;;;;;;;30.45;20.57;;;;;;;16.39;100.00;98344.12;2091967;84;21075;-87
2022/10/01 11:05:51;;;;;;;31.25;20.85;;;;;;;16.44;100.00;98335.80;2084319;83;21618;-86
2022/10/01 11:08:56;;;;;;;28.00;19.23;;;;;;;16.50;100.00;98336.22;2082620;83;21045;-86
2022/10/01 11:11:54;;;;;;;32.88;20.95;;;;;;;16.66;100.00;98332.13;2090436;84;21559;-85
2022/10/01 11:14:55;;;;;;;29.18;20.20;;;;;;;16.76;100.00;98320.50;2079042;84;21022;-86
2022/10/01 11:17:55;;;;;;;33.33;21.00;;;;;;;16.88;100.00;98309.12;2066359;85;21090;-85
2022/10/01 11:20:59;;;;;;;27.45;19.75;;;;;;;17.05;100.00;98300.78;2069114;85;21064;-86
2022/10/01 11:23:59;;;;;;;30.37;20.95;;;;;;;17.01;100.00;98299.13;2069586;84;21144;-83
2022/10/01 11:26:59;;;;;;;32.05;21.40;;;;;;;16.98;100.00;98288.99;2048232;86;21559;-87
2022/10/01 11:30:00;;;;;;;29.63;21.12;;;;;;;16.89;100.00;98286.93;2048643;84;21032;-87
2022/10/01 11:33:02;;;;;;;32.30;20.25;;;;;;;16.75;100.00;98279.76;2088233;84;21682;-84
2022/10/01 11:36:03;;;;;;;28.30;19.32;;;;;;;16.60;100.00;98278.04;2064576;84;21081;-86
2022/10/01 11:39:04;;;;;;;29.10;19.35;;;;;;;16.58;100.00;98264.25;2084125;84;21647;-84
2022/10/01 11:42:07;;;;;;;26.60;19.73;;;;;;;16.44;100.00;98260.48;2079110;84;21046;-84
2022/10/01 11:45:07;;;;;;;27.60;18.40;;;;;;;16.47;100.00;98260.05;2076276;84;21139;-81
2022/10/01 11:48:09;;;;;;;27.67;19.70;;;;;;;16.47;100.00;98256.61;2075210;84;21125;-83
2022/10/01 11:51:11;;;;;;;24.92;18.20;;;;;;;16.36;100.00;98250.77;2075205;84;21124;-84
2022/10/01 11:54:12;;;;;;;25.43;18.20;;;;;;;16.30;100.00;98251.18;2076645;84;21071;-84
2022/10/01 12:00:32;;;;;;;25.65;16.55;;;;;;;16.27;100.00;98244.20;2068158;85;21136;-81
2022/10/01 12:03:33;;;;;;;22.70;16.37;;;;;;;16.25;100.00;98239.67;2159285;82;21065;-85
2022/10/01 12:06:33;;;;;;;25.15;18.23;;;;;;;16.28;100.00;98236.08;2113067;83;21048;-85
2022/10/01 12:09:34;;;;;;;24.50;17.65;;;;;;;16.47;100.00;98230.19;2119731;83;21141;-87
2022/10/01 12:12:35;;;;;;;25.40;18.23;;;;;;;16.72;100.00;98226.00;2113394;83;21687;-85
2022/10/01 12:15:36;;;;;;;25.25;18.32;;;;;;;16.97;100.00;98217.83;2107054;83;21084;-85
2022/10/01 12:18:37;;;;;;;24.12;16.30;;;;;;;17.14;100.00;98208.66;2099738;83;21599;-84
2022/10/01 12:21:37;;;;;;;25.55;18.07;;;;;;;17.17;100.00;98210.31;2102257;83;21035;-84
2022/10/01 12:24:39;;;;;;;25.00;16.45;;;;;;;17.28;100.00;98206.84;2106618;83;21054;-84
2022/10/01 12:27:40;;;;;;;21.68;16.85;;;;;;;17.39;100.00;98193.30;2103931;83;21147;-82
2022/10/01 12:30:42;;;;;;;26.07;17.40;;;;;;;17.49;100.00;98199.30;2115258;83;21512;-83
2022/10/01 12:33:42;;;;;;;21.15;15.85;;;;;;;17.53;100.00;98196.45;2117153;83;21086;-82
2022/10/01 12:36:43;;;;;;;20.85;15.65;;;;;;;17.51;100.00;98201.98;2094903;84;21013;-82
2022/10/01 12:39:44;;;;;;;25.43;15.50;;;;;;;17.48;100.00;98195.05;2070490;84;21032;-84
2022/10/01 12:42:44;;;;;;;21.48;16.00;;;;;;;17.46;100.00;98195.26;2149214;82;20971;-85
2022/10/01 12:45:45;;;;;;;20.23;13.83;;;;;;;17.48;100.00;98193.20;2155141;81;21080;-82
2022/10/01 12:48:46;;;;;;;18.77;13.98;;;;;;;17.37;100.00;98187.41;2142361;81;21001;-80
2022/10/01 12:51:52;;;;;;;16.87;12.73;;;;;;;17.34;100.00;98185.24;2140182;82;21594;-85
2022/10/01 12:54:49;;;;;;;20.40;15.00;;;;;;;17.34;100.00;98184.72;2104294;83;21544;-85
2022/10/01 12:57:50;;;;;;;18.57;13.35;;;;;;;17.31;100.00;98171.17;2106892;83;21052;-85
2022/10/01 13:00:52;;;;;;;15.20;11.97;;;;;;;17.32;100.00;98167.48;2068854;82;21099;-82
2022/10/01 13:03:52;;;;;;;15.75;12.53;;;;;;;17.27;100.00;98163.41;2097352;83;21053;-84
2022/10/01 13:06:53;;;;;;;14.10;12.03;;;;;;;17.15;100.00;98162.13;2082844;84;21063;-83
2022/10/01 13:09:54;;;;;;;14.60;12.80;;;;;;;16.99;100.00;98154.92;2092305;84;21771;-82
2022/10/01 13:12:55;;;;;;;14.63;12.15;;;;;;;16.77;100.00;98156.87;2087575;84;21051;-83
2022/10/01 13:15:56;;;;;;;17.57;13.13;;;;;;;16.63;100.00;98142.78;2150406;81;21016;-82
2022/10/01 13:18:57;;;;;;;19.35;14.15;;;;;;;16.46;100.00;98138.22;2146367;81;21111;-86
2022/10/01 13:21:58;;;;;;;17.27;13.75;;;;;;;16.31;100.00;98139.72;2149096;82;21053;-85
2022/10/01 13:24:59;;;;;;;19.67;14.33;;;;;;;16.19;100.00;98136.56;2138493;81;21082;-86
2022/10/01 13:28:00;;;;;;;24.37;16.25;;;;;;;16.09;100.00;98135.50;2159905;82;21077;-87
2022/10/01 13:31:01;;;;;;;21.73;13.95;;;;;;;16.03;100.00;98136.43;2145858;81;21012;-83
2022/10/01 13:34:02;;;;;;;22.48;13.32;;;;;;;15.95;100.00;98129.64;2152797;82;21449;-82
2022/10/01 13:37:03;;;;;;;17.67;14.07;;;;;;;15.87;100.00;98124.17;2149746;81;21028;-84
2022/10/01 13:40:03;;;;;;;17.42;13.13;;;;;;;15.74;100.00;98121.76;2150027;82;21049;-84
2022/10/01 13:43:07;;;;;;;20.77;14.78;;;;;;;15.67;100.00;98125.52;2132523;82;20966;-84
2022/10/01 13:46:08;;;;;;;18.32;14.05;;;;;;;15.59;100.00;98122.66;2131791;81;21144;-83
2022/10/01 13:49:09;;;;;;;19.30;14.83;;;;;;;15.51;100.00;98126.94;2145116;81;21043;-84
2022/10/01 13:52:09;;;;;;;19.92;14.83;;;;;;;15.42;100.00;98126.45;2137655;82;21488;-86
2022/10/01 13:55:10;;;;;;;19.57;14.23;;;;;;;15.35;100.00;98121.25;2134839;81;21004;-84